Time;durP1;ratioP1;P1;durP2;ratioP2;P2;SDS_P1;SDS_P2;PMS_P1;PMS_P2;Temp;Humidity;BMP_temperature;BMP_pressure;BME280_temperature;BME280_humidity;BME280_pressure;Samples;Min_cycle;Max_cycle;Signal;HPM_P1;HPM_P2
2023/03/26 00:04:25;;;;;;;16.67;3.43;;;;;9.10;100248.00;;;;10598208;27;20215;-81
2023/03/26 00:09:28;;;;;;;15.43;3.63;;;;;9.10;100227.00;;;;10561760;27;20287;-81
2023/03/26 00:14:31;;;;;;;21.10;3.43;;;;;9.00;100229.00;;;;10534199;27;20203;-81
2023/03/26 00:19:33;;;;;;;21.00;3.40;;;;;9.00;100235.00;;;;10554731;27;20198;-80
2023/03/26 00:24:36;;;;;;;21.03;4.17;;;;;8.80;100211.00;;;;10574304;27;20699;-79
2023/03/26 00:29:38;;;;;;;20.07;3.67;;;;;8.60;100209.00;;;;10577287;27;20258;-79
2023/03/26 00:34:41;;;;;;;10.10;2.47;;;;;8.50;100216.00;;;;10601492;27;20248;-78
2023/03/26 00:39:43;;;;;;;16.43;3.40;;;;;8.40;100198.00;;;;10557792;27;20222;-79
2023/03/26 00:44:45;;;;;;;16.87;3.13;;;;;8.40;100201.00;;;;10531823;28;20247;-79
2023/03/26 00:49:47;;;;;;;14.00;2.60;;;;;8.40;100203.00;;;;10510273;28;20196;-79
2023/03/26 00:54:51;;;;;;;16.93;2.60;;;;;8.30;100196.00;;;;10535356;28;20189;-76
2023/03/26 00:59:53;;;;;;;17.60;3.27;;;;;8.20;100193.00;;;;10515980;28;20227;-78
2023/03/26 01:05:01;;;;;;;16.20;2.70;;;;;8.20;100181.00;;;;10529898;27;20901;-77
2023/03/26 01:10:04;;;;;;;11.50;2.63;;;;;8.10;100169.00;;;;10531834;27;20283;-78
2023/03/26 01:15:07;;;;;;;12.80;4.03;;;;;8.00;100152.00;;;;10504731;28;20218;-77
2023/03/26 01:20:14;;;;;;;15.80;3.20;;;;;7.90;100143.00;;;;10535535;28;20204;-77
2023/03/26 01:25:17;;;;;;;17.10;2.70;;;;;7.90;100130.00;;;;10518021;28;20240;-77
2023/03/26 01:30:23;;;;;;;13.37;3.47;;;;;7.90;100114.00;;;;10530494;28;20279;-76
2023/03/26 01:35:35;;;;;;;22.80;3.33;;;;;7.90;100083.00;;;;10544874;28;20195;-77
2023/03/26 01:40:48;;;;;;;18.57;3.53;;;;;7.80;100093.00;;;;10519521;27;20189;-77
2023/03/26 01:45:51;;;;;;;17.57;4.27;;;;;7.80;100086.00;;;;10569703;28;20219;-77
2023/03/26 01:50:55;;;;;;;16.90;3.23;;;;;7.80;100073.00;;;;10511511;27;20196;-78
2023/03/26 01:56:05;;;;;;;18.10;3.27;;;;;7.90;100068.00;;;;10516815;28;20200;-77
2023/03/26 02:01:16;;;;;;;17.30;3.93;;;;;7.90;100054.00;;;;10507721;27;20562;-77
2023/03/26 02:06:50;;;;;;;20.37;4.63;;;;;7.90;100033.00;;;;10524919;27;20214;-78
2023/03/26 02:11:53;;;;;;;17.07;4.00;;;;;7.90;100025.00;;;;10524529;28;20207;-78
2023/03/26 02:16:55;;;;;;;20.83;3.43;;;;;7.80;100013.00;;;;10546000;27;20283;-78
2023/03/26 02:21:58;;;;;;;29.83;3.93;;;;;7.80;100011.00;;;;10521348;27;20554;-78
2023/03/26 02:27:06;;;;;;;16.93;3.63;;;;;7.70;100002.00;;;;10545906;27;20655;-78
2023/03/26 02:32:13;;;;;;;22.23;3.60;;;;;7.70;99996.00;;;;10544601;27;20207;-78
2023/03/26 02:37:17;;;;;;;13.20;3.17;;;;;7.70;99982.00;;;;10565484;27;20620;-78
2023/03/26 02:42:30;;;;;;;21.73;3.70;;;;;7.70;99978.00;;;;10549022;27;20245;-79
2023/03/26 02:47:33;;;;;;;17.50;3.70;;;;;7.80;99966.00;;;;10529434;27;20322;-79
2023/03/26 02:53:13;;;;;;;15.10;4.30;;;;;7.80;99940.00;;;;10568772;27;20218;-78
2023/03/26 02:58:19;;;;;;;18.47;3.90;;;;;7.90;99927.00;;;;10556862;27;20237;-78
2023/03/26 03:03:25;;;;;;;13.20;4.00;;;;;7.90;99906.00;;;;10530992;27;20212;-79
2023/03/26 03:08:34;;;;;;;17.73;3.47;;;;;7.90;99896.00;;;;10545454;27;20215;-78
2023/03/26 03:13:52;;;;;;;13.67;3.53;;;;;8.00;99897.00;;;;10538339;27;20223;-79
2023/03/26 03:19:04;;;;;;;15.23;3.27;;;;;8.00;99872.00;;;;10508650;27;20320;-79
2023/03/26 03:24:12;;;;;;;19.23;3.60;;;;;8.00;99868.00;;;;10534321;27;20249;-79
2023/03/26 03:29:19;;;;;;;17.43;3.37;;;;;8.00;99854.00;;;;10526260;27;20202;-79
2023/03/26 03:34:24;;;;;;;18.20;4.67;;;;;8.00;99845.00;;;;10518066;27;20204;-79
2023/03/26 03:39:26;;;;;;;16.77;3.30;;;;;7.90;99829.00;;;;10562557;27;20189;-79
2023/03/26 03:44:29;;;;;;;16.20;4.13;;;;;7.90;99798.00;;;;10488961;27;20519;-79
2023/03/26 03:49:32;;;;;;;14.90;3.50;;;;;7.90;99791.00;;;;10542564;27;20199;-79
2023/03/26 03:54:34;;;;;;;11.57;2.77;;;;;7.90;99780.00;;;;10543096;27;20196;-79
2023/03/26 03:59:57;;;;;;;18.03;3.60;;;;;7.90;99762.00;;;;10547159;27;20192;-79
2023/03/26 04:05:04;;;;;;;14.73;3.17;;;;;7.90;99761.00;;;;10541857;27;20306;-79
2023/03/26 04:10:09;;;;;;;12.33;3.77;;;;;8.00;99742.00;;;;10515382;27;20220;-80
2023/03/26 04:15:30;;;;;;;19.50;3.93;;;;;8.00;99750.00;;;;10526209;27;20240;-80
2023/03/26 04:20:33;;;;;;;22.70;3.93;;;;;8.00;99736.00;;;;10520425;27;20587;-80
2023/03/26 04:25:38;;;;;;;17.30;3.77;;;;;8.00;99728.00;;;;10521495;27;20608;-80
2023/03/26 04:30:55;;;;;;;16.67;3.27;;;;;8.00;99727.00;;;;10511066;27;20191;-80
2023/03/26 04:36:12;;;;;;;15.63;3.10;;;;;8.00;99713.00;;;;10546829;27;20207;-80
2023/03/26 04:41:15;;;;;;;16.23;4.00;;;;;8.00;99701.00;;;;10530779;27;20697;-80
2023/03/26 04:46:24;;;;;;;18.57;4.07;;;;;8.00;99681.00;;;;10516960;28;20220;-79
2023/03/26 04:51:40;;;;;;;12.80;3.50;;;;;8.00;99679.00;;;;10543225;27;20185;-80
2023/03/26 04:57:36;;;;;;;13.73;3.40;;;;;8.00;99664.00;;;;10461207;28;20227;-79
2023/03/26 05:02:48;;;;;;;12.17;3.07;;;;;8.00;99661.00;;;;10532773;28;20780;-79
2023/03/26 05:07:51;;;;;;;12.27;3.03;;;;;8.00;99657.00;;;;10548192;27;20223;-79
2023/03/26 05:12:55;;;;;;;13.73;2.97;;;;;8.10;99652.00;;;;10543747;28;20190;-79
2023/03/26 05:18:02;;;;;;;15.13;3.10;;;;;8.10;99647.00;;;;10548719;27;20279;-80
2023/03/26 05:23:11;;;;;;;15.77;2.83;;;;;8.10;99639.00;;;;10503333;28;20232;-79
2023/03/26 05:28:36;;;;;;;13.00;2.60;;;;;8.00;99640.00;;;;10561404;27;20239;-79
2023/03/26 05:33:51;;;;;;;13.60;2.60;;;;;8.00;99637.00;;;;10508213;27;20201;-78
2023/03/26 05:38:54;;;;;;;8.80;2.13;;;;;7.90;99632.00;;;;10535209;27;20197;-77
2023/03/26 05:44:15;;;;;;;5.50;1.90;;;;;7.80;99623.00;;;;10546427;27;20207;-78
2023/03/26 05:49:17;;;;;;;7.70;1.87;;;;;7.70;99616.00;;;;10535621;27;20206;-77
2023/03/26 05:54:20;;;;;;;12.20;2.10;;;;;7.70;99609.00;;;;10560382;27;20392;-77
2023/03/26 05:59:40;;;;;;;12.43;2.17;;;;;7.70;99601.00;;;;10553222;27;20206;-78
2023/03/26 06:05:03;;;;;;;11.10;2.33;;;;;7.70;99594.00;;;;10541661;27;20249;-77
2023/03/26 06:10:25;;;;;;;11.23;2.13;;;;;7.60;99589.00;;;;10535891;27;20866;-77
2023/03/26 06:15:27;;;;;;;7.33;2.17;;;;;7.70;99580.00;;;;10516528;27;20261;-77
2023/03/26 06:20:35;;;;;;;12.83;2.87;;;;;7.70;99569.00;;;;10534282;27;20192;-78
2023/03/26 06:25:44;;;;;;;13.77;2.97;;;;;7.70;99566.00;;;;10533596;27;20254;-77
2023/03/26 06:31:12;;;;;;;12.43;2.27;;;;;7.60;99562.00;;;;10505210;27;20813;-78
2023/03/26 06:36:21;;;;;;;10.97;2.60;;;;;7.60;99551.00;;;;10539792;27;20196;-77
2023/03/26 06:41:24;;;;;;;6.97;1.53;;;;;7.60;99540.00;;;;10504339;28;20211;-78
2023/03/26 06:46:46;;;;;;;7.90;2.37;;;;;7.60;99538.00;;;;10559733;27;20208;-77
2023/03/26 06:52:07;;;;;;;7.67;1.40;;;;;7.60;99543.00;;;;10535226;28;20193;-77
2023/03/26 06:57:36;;;;;;;6.07;1.70;;;;;7.50;99533.00;;;;10532992;28;20212;-77
2023/03/26 07:03:05;;;;;;;5.97;2.07;;;;;7.50;99528.00;;;;10538578;28;20197;-78
2023/03/26 07:08:26;;;;;;;9.03;1.83;;;;;7.40;99519.00;;;;10498972;28;20207;-77
2023/03/26 07:13:46;;;;;;;6.57;1.87;;;;;7.40;99505.00;;;;10519827;28;20337;-78
2023/03/26 07:19:07;;;;;;;3.27;1.40;;;;;7.40;99506.00;;;;10503072;27;20200;-77
2023/03/26 07:24:12;;;;;;;6.30;1.90;;;;;7.30;99501.00;;;;10519110;27;20385;-77
2023/03/26 07:30:05;;;;;;;7.23;1.70;;;;;7.40;99489.00;;;;10514947;27;20204;-77
2023/03/26 07:35:50;;;;;;;3.80;1.10;;;;;7.40;99479.00;;;;10537777;27;20203;-78
2023/03/26 07:41:31;;;;;;;4.30;1.37;;;;;7.50;99463.00;;;;10552737;27;20655;-77
2023/03/26 07:46:52;;;;;;;4.53;1.30;;;;;7.60;99453.00;;;;10579758;27;20283;-77
2023/03/26 07:52:30;;;;;;;6.43;1.30;;;;;7.60;99447.00;;;;10489689;27;20218;-77
2023/03/26 07:58:26;;;;;;;5.97;1.20;;;;;7.70;99445.00;;;;10502973;28;20208;-77
2023/03/26 08:04:17;;;;;;;3.40;2.10;;;;;7.70;99438.00;;;;10510363;28;20190;-76
2023/03/26 08:10:11;;;;;;;5.17;1.30;;;;;7.70;99442.00;;;;10531970;27;20196;-76
2023/03/26 08:15:40;;;;;;;3.60;1.40;;;;;7.70;99434.00;;;;10511955;28;20195;-76
2023/03/26 08:20:47;;;;;;;7.87;1.30;;;;;7.80;99435.00;;;;10507577;28;20455;-76
2023/03/26 08:26:01;;;;;;;5.03;1.30;;;;;7.90;99433.00;;;;10536346;28;20216;-77
2023/03/26 08:31:04;;;;;;;6.33;1.30;;;;;7.80;99435.00;;;;10523687;28;20214;-76
2023/03/26 08:36:08;;;;;;;5.83;1.43;;;;;7.80;99428.00;;;;10502936;28;20306;-77
2023/03/26 08:41:17;;;;;;;7.23;1.70;;;;;7.80;99420.00;;;;10550627;28;20230;-76
2023/03/26 08:46:42;;;;;;;2.40;1.20;;;;;8.00;99420.00;;;;10526963;28;20223;-78
2023/03/26 08:51:57;;;;;;;8.87;1.77;;;;;8.00;99428.00;;;;10502863;28;20197;-80
2023/03/26 08:57:36;;;;;;;3.50;1.90;;;;;7.90;99427.00;;;;10476195;28;20197;-78
2023/03/26 09:03:20;;;;;;;9.90;2.57;;;;;7.90;99424.00;;;;10507175;28;20215;-78
2023/03/26 09:09:10;;;;;;;4.83;1.57;;;;;8.00;99435.00;;;;10473591;28;20299;-78
2023/03/26 09:14:29;;;;;;;7.07;1.67;;;;;8.30;99428.00;;;;10524993;27;20250;-78
2023/03/26 09:19:54;;;;;;;4.33;1.50;;;;;8.20;99442.00;;;;10587634;27;20200;-78
2023/03/26 09:25:30;;;;;;;3.87;1.50;;;;;8.20;99446.00;;;;10536855;27;20227;-78
2023/03/26 09:30:58;;;;;;;4.87;1.23;;;;;8.20;99449.00;;;;10498996;28;20207;-78
2023/03/26 09:36:12;;;;;;;2.70;1.70;;;;;8.30;99455.00;;;;10533502;27;20218;-78
2023/03/26 09:41:42;;;;;;;4.53;1.60;;;;;8.30;99455.00;;;;10497613;28;20236;-78
2023/03/26 09:46:49;;;;;;;6.40;1.50;;;;;8.50;99461.00;;;;10571215;27;20269;-78
2023/03/26 09:52:13;;;;;;;5.10;1.60;;;;;8.50;99461.00;;;;10522296;28;20192;-78
2023/03/26 09:58:01;;;;;;;4.37;1.63;;;;;8.60;99468.00;;;;10522485;28;20203;-77
2023/03/26 10:03:27;;;;;;;3.23;2.33;;;;;8.60;99470.00;;;;10538126;28;20440;-78
2023/03/26 10:09:05;;;;;;;7.10;1.80;;;;;8.50;99468.00;;;;10553041;28;20216;-78
2023/03/26 10:14:21;;;;;;;3.93;2.00;;;;;8.60;99481.00;;;;10508742;27;20208;-79
2023/03/26 10:19:49;;;;;;;3.40;1.83;;;;;8.50;99492.00;;;;10508444;28;20199;-78
2023/03/26 10:25:13;;;;;;;4.43;1.70;;;;;8.40;99490.00;;;;10502064;28;20211;-78
2023/03/26 10:30:39;;;;;;;3.27;1.67;;;;;8.40;99498.00;;;;10508057;28;20200;-78
2023/03/26 10:36:06;;;;;;;4.77;1.20;;;;;8.40;99500.00;;;;10516654;28;20907;-78
2023/03/26 10:41:24;;;;;;;4.70;1.33;;;;;8.40;99509.00;;;;10514770;28;20224;-79
2023/03/26 10:46:40;;;;;;;6.00;1.67;;;;;8.30;99523.00;;;;10506609;27;20302;-78
2023/03/26 10:51:50;;;;;;;3.17;1.60;;;;;8.40;99522.00;;;;10551694;28;20215;-78
2023/03/26 10:56:54;;;;;;;3.63;1.53;;;;;8.60;99530.00;;;;10534058;28;20210;-78
2023/03/26 11:01:57;;;;;;;4.83;1.70;;;;;8.60;99536.00;;;;10527115;28;20212;-78
2023/03/26 11:07:20;;;;;;;6.60;1.70;;;;;8.60;99546.00;;;;10483103;28;20224;-78
2023/03/26 11:12:34;;;;;;;9.00;1.83;;;;;8.70;99543.00;;;;10522653;27;20200;-78
2023/03/26 11:18:13;;;;;;;5.97;1.87;;;;;8.80;99548.00;;;;10543026;27;20196;-78
2023/03/26 11:23:28;;;;;;;4.80;1.90;;;;;9.00;99563.00;;;;10499223;28;20204;-78
2023/03/26 11:28:55;;;;;;;5.77;1.70;;;;;9.20;99574.00;;;;10525647;27;20212;-79
2023/03/26 11:34:27;;;;;;;2.47;1.47;;;;;9.50;99576.00;;;;10508813;27;20195;-79
2023/03/26 11:39:40;;;;;;;5.70;1.97;;;;;9.40;99583.00;;;;10499343;27;20207;-80
2023/03/26 11:45:06;;;;;;;6.17;1.80;;;;;9.30;99588.00;;;;10496638;27;20196;-79
2023/03/26 11:50:17;;;;;;;8.33;2.17;;;;;9.30;99607.00;;;;10513462;27;20644;-78
2023/03/26 11:55:20;;;;;;;4.07;2.07;;;;;9.40;99595.00;;;;10521792;27;20197;-79
2023/03/26 12:00:26;;;;;;;4.43;2.77;;;;;9.40;99606.00;;;;10532928;27;20284;-79
2023/03/26 12:05:32;;;;;;;4.03;2.30;;;;;9.40;99606.00;;;;10538845;27;20239;-79
2023/03/26 12:10:41;;;;;;;4.77;3.33;;;;;9.70;99613.00;;;;10531076;27;20242;-79
2023/03/26 12:15:46;;;;;;;4.10;2.80;;;;;10.20;99614.00;;;;10524215;27;20505;-78
2023/03/26 12:20:49;;;;;;;4.53;2.43;;;;;9.80;99622.00;;;;10529974;27;20198;-79
2023/03/26 12:26:10;;;;;;;4.97;2.50;;;;;9.40;99629.00;;;;10528203;27;20302;-78
2023/03/26 12:31:17;;;;;;;4.90;2.67;;;;;9.30;99643.00;;;;10516930;27;20287;-78
2023/03/26 12:36:25;;;;;;;7.20;2.30;;;;;9.30;99647.00;;;;10515002;28;20611;-78
2023/03/26 12:41:36;;;;;;;4.90;1.60;;;;;9.80;99649.00;;;;10526184;28;20926;-78
2023/03/26 12:47:16;;;;;;;3.83;1.70;;;;;10.10;99654.00;;;;10536454;28;20217;-78
2023/03/26 12:53:13;;;;;;;3.63;1.57;;;;;10.40;99656.00;;;;10528354;28;20203;-79
2023/03/26 12:58:39;;;;;;;5.57;1.70;;;;;10.90;99663.00;;;;10528225;28;20229;-80
2023/03/26 13:03:50;;;;;;;3.20;1.37;;;;;11.30;99663.00;;;;10509520;28;20208;-79
2023/03/26 13:09:01;;;;;;;2.53;0.70;;;;;11.80;99671.00;;;;10525740;28;20260;-80
2023/03/26 13:14:09;;;;;;;2.40;0.97;;;;;11.60;99677.00;;;;10532335;28;20200;-80
2023/03/26 13:19:27;;;;;;;1.43;0.93;;;;;11.40;99700.00;;;;10551786;28;20215;-80
2023/03/26 13:24:36;;;;;;;0.70;0.70;;;;;10.80;99699.00;;;;10536399;27;20200;-80
2023/03/26 13:30:15;;;;;;;1.87;0.80;;;;;10.30;99708.00;;;;10527234;27;20215;-79
2023/03/26 13:35:30;;;;;;;1.03;0.70;;;;;9.80;99728.00;;;;10515015;27;20741;-80
2023/03/26 13:41:00;;;;;;;1.10;1.00;;;;;9.80;99743.00;;;;10514729;28;20193;-77
2023/03/26 13:46:35;;;;;;;1.33;1.10;;;;;10.20;99742.00;;;;10529091;27;20311;-77
2023/03/26 13:51:43;;;;;;;1.27;0.80;;;;;10.30;99749.00;;;;10536676;27;20227;-77
2023/03/26 13:56:53;;;;;;;1.70;1.10;;;;;10.30;99750.00;;;;10508896;27;20203;-78
2023/03/26 14:02:02;;;;;;;0.70;0.70;;;;;9.80;99763.00;;;;10499363;27;20627;-77
2023/03/26 14:07:25;;;;;;;1.63;1.30;;;;;9.80;99774.00;;;;10496104;27;20216;-77
2023/03/26 14:12:37;;;;;;;1.83;1.43;;;;;9.50;99776.00;;;;10534930;27;20207;-77
2023/03/26 14:17:49;;;;;;;3.10;1.90;;;;;9.50;99784.00;;;;10504434;28;20663;-77
2023/03/26 14:23:38;;;;;;;2.37;1.40;;;;;9.70;99794.00;;;;10517323;27;20200;-78
2023/03/26 14:29:06;;;;;;;1.83;1.70;;;;;9.80;99792.00;;;;10538146;27;20210;-77
2023/03/26 14:34:14;;;;;;;2.40;1.53;;;;;9.80;99798.00;;;;10514792;27;20200;-77
2023/03/26 14:39:44;;;;;;;2.37;1.60;;;;;9.60;99806.00;;;;10545267;28;20208;-77
2023/03/26 14:45:26;;;;;;;1.53;1.30;;;;;9.30;99820.00;;;;10487667;27;20192;-77
2023/03/26 14:51:13;;;;;;;2.63;1.50;;;;;8.80;99835.00;;;;10489646;28;20215;-77
2023/03/26 14:56:17;;;;;;;2.30;2.00;;;;;8.80;99847.00;;;;10370487;27;20264;-77
2023/03/26 15:01:51;;;;;;;3.80;1.90;;;;;8.90;99854.00;;;;10515915;27;20203;-77
2023/03/26 15:07:09;;;;;;;3.40;2.73;;;;;9.40;99860.00;;;;10497840;27;20777;-77
2023/03/26 15:12:32;;;;;;;7.47;3.50;;;;;9.60;99863.00;;;;10534938;27;20223;-77
2023/03/26 15:17:46;;;;;;;4.80;3.30;;;;;9.20;99874.00;;;;10576302;27;20409;-76
2023/03/26 15:23:36;;;;;;;4.63;2.40;;;;;8.80;99891.00;;;;10570222;27;20199;-77
2023/03/26 15:29:03;;;;;;;5.90;3.07;;;;;8.60;99905.00;;;;10448470;28;20312;-77
2023/03/26 15:34:29;;;;;;;4.37;3.57;;;;;8.60;99904.00;;;;10522061;27;20239;-77
2023/03/26 15:39:44;;;;;;;6.17;3.30;;;;;8.60;99922.00;;;;10514829;28;20206;-76
2023/03/26 15:45:30;;;;;;;6.27;3.47;;;;;8.40;99921.00;;;;10524111;28;20523;-77
2023/03/26 15:50:50;;;;;;;8.43;3.40;;;;;8.10;99929.00;;;;10464346;28;20693;-76
2023/03/26 15:56:03;;;;;;;7.33;4.23;;;;;8.00;99937.00;;;;10514101;28;20188;-77
2023/03/26 16:01:24;;;;;;;10.30;5.57;;;;;8.10;99946.00;;;;10541750;27;20223;-77
2023/03/26 16:06:47;;;;;;;11.13;6.27;;;;;8.10;99956.00;;;;10497039;27;20304;-77
2023/03/26 16:11:56;;;;;;;11.93;6.07;;;;;8.20;99976.00;;;;10537912;27;20208;-77
2023/03/26 16:17:00;;;;;;;20.20;7.50;;;;;8.30;99987.00;;;;10518025;27;20200;-77
2023/03/26 16:22:04;;;;;;;17.33;6.77;;;;;8.30;99998.00;;;;10503787;27;20217;-77
2023/03/26 16:27:12;;;;;;;12.17;5.30;;;;;8.30;100006.00;;;;10564005;27;20238;-76
2023/03/26 16:32:28;;;;;;;19.17;7.00;;;;;8.40;100012.00;;;;10544110;27;20219;-76
2023/03/26 16:37:30;;;;;;;16.67;6.23;;;;;8.50;100036.00;;;;10488379;27;20218;-77
2023/03/26 16:42:38;;;;;;;17.93;6.43;;;;;8.40;100048.00;;;;10513637;27;20220;-77
2023/03/26 16:48:00;;;;;;;15.70;5.03;;;;;8.20;100064.00;;;;10533541;27;20224;-77
2023/03/26 16:53:41;;;;;;;17.67;5.67;;;;;8.10;100080.00;;;;10527498;28;20279;-76
2023/03/26 16:58:54;;;;;;;15.33;4.83;;;;;8.00;100087.00;;;;10533157;27;20263;-76
2023/03/26 17:04:07;;;;;;;11.03;4.07;;;;;8.00;100111.00;;;;10493602;28;20200;-76
2023/03/26 17:09:23;;;;;;;17.27;5.17;;;;;8.00;100117.00;;;;10539399;28;20322;-77
2023/03/26 17:14:47;;;;;;;20.50;5.43;;;;;7.90;100134.00;;;;10544575;27;20910;-76
2023/03/26 17:20:10;;;;;;;16.63;4.83;;;;;7.80;100137.00;;;;10489805;28;20630;-76
2023/03/26 17:25:35;;;;;;;14.47;4.43;;;;;7.70;100153.00;;;;10499862;27;20197;-77
2023/03/26 17:31:05;;;;;;;17.80;4.07;;;;;7.70;100165.00;;;;10506615;27;20273;-79
2023/03/26 17:36:50;;;;;;;17.23;3.70;;;;;7.70;100185.00;;;;10498486;28;20315;-79
2023/03/26 17:41:54;;;;;;;9.20;4.13;;;;;7.60;100195.00;;;;10535796;27;20244;-79
2023/03/26 17:46:59;;;;;;;13.17;4.93;;;;;7.60;100208.00;;;;10519799;27;20239;-79
2023/03/26 17:52:19;;;;;;;15.73;4.23;;;;;7.60;100220.00;;;;10503201;27;20189;-79
2023/03/26 17:57:40;;;;;;;13.63;3.60;;;;;7.50;100225.00;;;;10514934;27;20283;-80
2023/03/26 18:02:49;;;;;;;13.30;4.67;;;;;7.40;100237.00;;;;10547700;28;20200;-79
2023/03/26 18:08:10;;;;;;;10.03;3.20;;;;;7.30;100260.00;;;;10537556;28;20227;-79
2023/03/26 18:13:40;;;;;;;16.60;4.67;;;;;7.20;100275.00;;;;10521204;27;20231;-79
2023/03/26 18:18:52;;;;;;;8.60;3.00;;;;;7.10;100287.00;;;;10515993;28;20216;-79
2023/03/26 18:23:57;;;;;;;11.67;3.63;;;;;7.00;100304.00;;;;10527571;27;20224;-79
2023/03/26 18:29:30;;;;;;;11.07;2.63;;;;;6.90;100308.00;;;;10523980;27;20268;-79
2023/03/26 18:34:33;;;;;;;10.37;3.63;;;;;6.80;100333.00;;;;10547781;28;20204;-79
2023/03/26 18:39:39;;;;;;;12.83;2.30;;;;;6.70;100340.00;;;;10516564;28;20336;-80
2023/03/26 18:44:41;;;;;;;9.87;3.17;;;;;6.60;100343.00;;;;10527768;27;20205;-79
2023/03/26 18:49:48;;;;;;;7.10;2.57;;;;;6.60;100370.00;;;;10515066;27;20224;-80
2023/03/26 18:54:52;;;;;;;11.60;3.47;;;;;6.50;100379.00;;;;10496929;28;20280;-80
2023/03/26 19:00:08;;;;;;;15.13;4.43;;;;;6.50;100395.00;;;;10518590;28;20206;-80
2023/03/26 19:05:15;;;;;;;11.90;2.80;;;;;6.50;100400.00;;;;10529930;27;20202;-79
2023/03/26 19:10:20;;;;;;;12.57;3.30;;;;;6.40;100427.00;;;;10522974;27;20216;-79
2023/03/26 19:15:23;;;;;;;15.47;2.70;;;;;6.30;100439.00;;;;10510889;28;20192;-79
2023/03/26 19:20:28;;;;;;;15.77;2.90;;;;;6.30;100451.00;;;;10514624;27;20236;-79
2023/03/26 19:25:43;;;;;;;12.47;2.27;;;;;6.20;100462.00;;;;10515751;27;20218;-79
2023/03/26 19:30:46;;;;;;;11.37;2.03;;;;;6.20;100466.00;;;;10511733;28;20633;-79
2023/03/26 19:36:00;;;;;;;10.73;2.77;;;;;6.10;100483.00;;;;10537062;27;20207;-79
2023/03/26 19:41:03;;;;;;;11.77;2.63;;;;;6.10;100488.00;;;;10522300;28;20212;-79
2023/03/26 19:46:05;;;;;;;8.33;2.20;;;;;6.00;100501.00;;;;10509657;28;20249;-79
2023/03/26 19:51:35;;;;;;;8.83;2.17;;;;;6.00;100507.00;;;;10516440;27;20486;-79
2023/03/26 19:56:37;;;;;;;13.33;2.50;;;;;6.00;100524.00;;;;10529212;27;20202;-79
2023/03/26 20:01:40;;;;;;;9.97;2.23;;;;;5.90;100525.00;;;;10527722;27;20195;-79
2023/03/26 20:06:42;;;;;;;7.03;1.83;;;;;5.90;100533.00;;;;10518771;27;20214;-79
2023/03/26 20:11:45;;;;;;;5.53;1.40;;;;;5.80;100547.00;;;;10502943;28;20727;-79
2023/03/26 20:16:48;;;;;;;7.43;1.80;;;;;5.80;100557.00;;;;10491733;28;20249;-79
2023/03/26 20:21:51;;;;;;;8.83;1.77;;;;;5.70;100582.00;;;;10533543;27;20224;-79
2023/03/26 20:26:53;;;;;;;7.27;1.80;;;;;5.60;100590.00;;;;10511874;28;20214;-79
2023/03/26 20:31:56;;;;;;;9.93;1.97;;;;;5.50;100598.00;;;;10509847;28;20199;-79
2023/03/26 20:36:58;;;;;;;7.83;2.03;;;;;5.40;100617.00;;;;10535412;27;20196;-79
2023/03/26 20:42:02;;;;;;;8.77;1.33;;;;;5.40;100637.00;;;;10512313;27;20230;-79
2023/03/26 20:47:04;;;;;;;4.67;1.50;;;;;5.40;100645.00;;;;10495289;28;20236;-79
2023/03/26 20:52:06;;;;;;;8.07;1.80;;;;;5.40;100656.00;;;;10529415;28;20200;-79
2023/03/26 20:57:10;;;;;;;5.93;1.50;;;;;5.50;100668.00;;;;10520478;28;20255;-78
2023/03/26 21:02:12;;;;;;;8.83;2.20;;;;;5.50;100676.00;;;;10509665;28;20227;-79
2023/03/26 21:07:14;;;;;;;12.33;2.53;;;;;5.50;100683.00;;;;10514906;28;20784;-78
2023/03/26 21:12:28;;;;;;;9.83;1.60;;;;;5.40;100693.00;;;;10468671;28;20654;-78
2023/03/26 21:17:31;;;;;;;8.03;1.77;;;;;5.40;100688.00;;;;10514275;28;20197;-79
2023/03/26 21:23:03;;;;;;;9.27;2.13;;;;;5.40;100697.00;;;;10534177;28;20279;-79
2023/03/26 21:28:29;;;;;;;4.87;1.30;;;;;5.40;100699.00;;;;10519761;28;20244;-78
2023/03/26 21:33:44;;;;;;;5.97;1.60;;;;;5.40;100720.00;;;;10521946;28;20673;-78
2023/03/26 21:38:46;;;;;;;10.63;1.97;;;;;5.40;100726.00;;;;10508985;28;20218;-79
2023/03/26 21:43:49;;;;;;;7.63;1.00;;;;;5.40;100749.00;;;;10502568;28;20196;-78
2023/03/26 21:48:51;;;;;;;6.77;1.50;;;;;5.40;100749.00;;;;10522531;28;20216;-79
2023/03/26 21:53:53;;;;;;;8.10;1.67;;;;;5.40;100762.00;;;;10512976;28;20201;-79
2023/03/26 21:59:23;;;;;;;8.73;2.30;;;;;5.30;100769.00;;;;10490321;28;20777;-79
2023/03/26 22:04:35;;;;;;;4.87;1.37;;;;;5.30;100776.00;;;;10532707;28;20216;-78
2023/03/26 22:09:37;;;;;;;8.30;1.60;;;;;5.30;100782.00;;;;10528690;27;20235;-78
2023/03/26 22:14:39;;;;;;;7.67;1.70;;;;;5.20;100801.00;;;;10527455;27;20913;-78
2023/03/26 22:19:42;;;;;;;8.63;1.63;;;;;5.10;100804.00;;;;10551040;27;20827;-79
2023/03/26 22:24:44;;;;;;;7.20;1.90;;;;;4.90;100818.00;;;;10525635;28;20192;-78
2023/03/26 22:29:46;;;;;;;7.70;1.77;;;;;4.70;100830.00;;;;10548184;27;20220;-79
2023/03/26 22:34:50;;;;;;;14.50;2.57;;;;;4.60;100844.00;;;;10515466;27;20443;-78
2023/03/26 22:39:52;;;;;;;6.00;1.63;;;;;4.60;100854.00;;;;10533101;28;20694;-78
2023/03/26 22:44:54;;;;;;;12.80;1.83;;;;;4.50;100868.00;;;;10524858;27;20247;-79
2023/03/26 22:49:57;;;;;;;7.83;1.40;;;;;4.40;100884.00;;;;10529839;27;20281;-78
2023/03/26 22:54:58;;;;;;;9.30;1.70;;;;;4.30;100899.00;;;;10522639;28;20212;-78
2023/03/26 23:00:07;;;;;;;8.10;1.57;;;;;4.20;100902.00;;;;10513799;27;20220;-78
2023/03/26 23:05:12;;;;;;;8.77;1.90;;;;;4.10;100915.00;;;;10511832;28;20284;-78
2023/03/26 23:10:14;;;;;;;10.23;1.63;;;;;4.20;100918.00;;;;10545498;28;20212;-79
2023/03/26 23:15:19;;;;;;;14.97;2.33;;;;;4.10;100925.00;;;;10523001;28;20258;-78
2023/03/26 23:20:21;;;;;;;13.67;1.97;;;;;4.10;100939.00;;;;10515455;28;20363;-79
2023/03/26 23:25:23;;;;;;;7.90;1.60;;;;;4.10;100948.00;;;;10487867;28;20204;-79
2023/03/26 23:30:25;;;;;;;7.23;2.00;;;;;4.00;100952.00;;;;10543526;27;20277;-77
2023/03/26 23:35:27;;;;;;;8.73;1.77;;;;;4.00;100963.00;;;;10523850;27;20237;-76
2023/03/26 23:40:29;;;;;;;10.53;1.77;;;;;4.10;100974.00;;;;10535040;27;20721;-76
2023/03/26 23:45:32;;;;;;;8.03;2.13;;;;;4.20;100990.00;;;;10542408;27;20192;-76
2023/03/26 23:50:36;;;;;;;6.30;1.27;;;;;4.30;100991.00;;;;10532135;27;20266;-77
2023/03/26 23:55:38;;;;;;;8.17;1.53;;;;;4.30;101001.00;;;;10517800;27;20188;-77
